EGVO - Odiham
Distance from station: E 5mi, 14km
Updated: 06/23/2018 6:50pm
Clear
Clear
 Wind from WSW
Wind: WSW 2 mph , 4 km/h
Temperature: 52°F , 11°C
Dew Point: 46°F , 8°C
Humidity: 82%
Barometer: 30.27 inHg , 1025 hPa
Clouds: Clear
Visibility: 6 miles , 10 km
2018/06/24 01:50 EGVO 240150Z AUTO 24002KT 9999 NCD 11/08 Q1025